Dothan Regional Airport
KDHN : now visible

Airfield :











YOU CAN JOIN US ON...

 
LOGIN :

Register | Disclaimer

   EN    FR    IT 

 









Legend :    VFR   Marginal VFR   IFR   Intensive IFR   Very Intensive IFR
Visi :
Ceiling :
>= 8 km
>= 3000ft
5 to 8 km
1000 to 3000 ft
1500m to 5 km
500 to 1000 ft
800 to 1500m
200 to 500 ft
< 800m
< 200 ft
Symbols :   Thunderstorms  Fog  Heavy snow  Heavy precipitations  Wind > 20 kt






- Airport Elevation : 401 ft
- IATA code : DHN


KDHN - Dothan Regional

CURRENT METAR :
  • 081853Z 27008KT 10SM -RA SCT029 BKN036 BKN050 29/21 A2992 RMK AO2 RAB45 SLP124 P0000 T02890211

EXPIRED METARs :
  • 081753Z 25007KT 10SM SCT024 SCT036 BKN046 28/21 A2994 RMK AO2 SLP131 T02780211 10283 20222 58017
  • 081742Z 26006KT 10SM SCT024 SCT044 28/21 A2994 RMK AO2 T02780211
  • 081653Z 28009KT 10SM SCT017 SCT028 BKN038 28/21 A2997 RMK AO2 SLP142 T02780211

TAF KDHN
Valid from the 08 at 18:00 until the 09 at 18:00 UTC


081720Z 0818/0918 27009KT P6SM VCTS BKN035CB
TEMPO 0820/0824 4SM TSRA OVC030CB
FM090000 24005KT P6SM VCTS BKN035CB
FM090300 23006KT P6SM BKN025
FM090700 23006KT P6SM BKN009
TEMPO 0909/0913 26006KT 4SM BR BKN004
FM091500 27007KT P6SM SCT025



MET'MAP, your aeronautical weather chart ! - Copyright ORBIFLY December 2007 - Disclaimer

ORBIFLY MET'MAP TEAM :

Programming & Development : Alexandra Zaïnal
Concept & original design : Baudouin d'Aumeries
Assistance for programming : Marc-Olivier Méhu
Technical & hardware support : Manuel Goepfert

Contact : metmap@orbifly.com




SOURCES & CREDITS :

   NOAA       Earth
Advisory